createdAt,value
2022-10-17T00:00:38.359Z,12.79
2022-10-17T00:03:04.708Z,12.86
2022-10-17T00:05:31.229Z,12.86
2022-10-17T00:07:57.544Z,12.80
2022-10-17T00:10:24.469Z,12.82
2022-10-17T00:12:52.030Z,12.83
2022-10-17T00:15:20.782Z,12.79
2022-10-17T00:17:47.771Z,12.87
2022-10-17T00:20:14.996Z,12.74
2022-10-17T00:22:42.132Z,12.74
2022-10-17T00:25:08.990Z,12.72
2022-10-17T00:27:37.197Z,12.74
2022-10-17T00:30:04.544Z,12.77
2022-10-17T00:32:31.289Z,12.73
2022-10-17T00:34:58.690Z,12.72
2022-10-17T00:37:25.822Z,12.66
2022-10-17T00:39:52.371Z,12.67
2022-10-17T00:42:18.817Z,12.77
2022-10-17T00:44:47.449Z,12.73
2022-10-17T00:47:19.461Z,12.78
2022-10-17T00:49:47.366Z,12.77
2022-10-17T00:52:23.354Z,12.72
2022-10-17T00:54:58.468Z,12.70
2022-10-17T00:57:26.929Z,12.64
2022-10-17T00:59:56.615Z,12.68
2022-10-17T01:02:23.219Z,12.77
2022-10-17T01:04:51.252Z,12.78
2022-10-17T01:07:17.877Z,12.78
2022-10-17T01:09:45.344Z,12.70
2022-10-17T01:12:12.068Z,12.75
2022-10-17T01:15:09.632Z,12.70
2022-10-17T01:17:37.320Z,12.63
2022-10-17T01:20:12.586Z,12.65
2022-10-17T01:23:11.769Z,12.58
2022-10-17T01:25:56.701Z,12.51
2022-10-17T01:29:05.396Z,12.44
2022-10-17T01:31:35.605Z,12.48
2022-10-17T01:34:20.642Z,12.46
2022-10-17T01:36:56.517Z,12.49
2022-10-17T01:39:46.963Z,12.53
2022-10-17T01:42:42.425Z,12.61
2022-10-17T01:45:19.585Z,12.56
2022-10-17T01:47:47.564Z,12.52
2022-10-17T01:50:20.287Z,12.45
2022-10-17T01:52:52.970Z,12.49
2022-10-17T01:55:32.163Z,12.40
2022-10-17T01:58:09.074Z,12.31
2022-10-17T02:00:37.864Z,12.43
2022-10-17T02:03:07.619Z,12.47
2022-10-17T02:05:38.747Z,12.38
2022-10-17T02:08:06.028Z,12.40
2022-10-17T02:10:38.627Z,12.39
2022-10-17T02:13:38.189Z,12.42
2022-10-17T02:16:28.270Z,12.42
2022-10-17T02:19:23.867Z,12.49
2022-10-17T02:22:14.586Z,12.51
2022-10-17T02:24:41.133Z,12.48
2022-10-17T02:27:07.453Z,12.56
2022-10-17T02:29:50.059Z,12.57
2022-10-17T02:32:25.045Z,12.60
2022-10-17T02:34:55.815Z,12.51
2022-10-17T02:37:27.357Z,12.60
2022-10-17T02:39:57.675Z,12.57
2022-10-17T02:42:26.226Z,12.58
2022-10-17T02:44:54.871Z,12.59
2022-10-17T02:47:37.865Z,12.64
2022-10-17T02:50:05.495Z,12.53
2022-10-17T02:52:37.037Z,12.55
2022-10-17T02:55:19.933Z,12.56
2022-10-17T02:57:54.220Z,12.61
2022-10-17T03:00:23.438Z,12.67
2022-10-17T03:02:52.270Z,12.75
2022-10-17T03:05:22.886Z,12.64
2022-10-17T03:07:49.604Z,12.59
2022-10-17T03:10:16.388Z,12.77
2022-10-17T03:12:42.959Z,12.77
2022-10-17T03:15:11.087Z,12.75
2022-10-17T03:17:38.189Z,12.77
2022-10-17T03:20:05.939Z,12.70
2022-10-17T03:22:32.884Z,12.61
2022-10-17T03:25:01.298Z,12.54
2022-10-17T03:27:28.323Z,12.49
2022-10-17T03:29:54.947Z,12.43
2022-10-17T03:32:21.391Z,12.36
2022-10-17T03:34:48.625Z,12.29
2022-10-17T03:37:15.489Z,12.25
2022-10-17T03:39:42.161Z,12.44
2022-10-17T03:42:08.853Z,12.33
2022-10-17T03:44:35.308Z,12.41
2022-10-17T03:47:01.743Z,12.49
2022-10-17T03:49:28.132Z,12.41
2022-10-17T03:51:54.466Z,12.40
2022-10-17T03:54:20.853Z,12.38
2022-10-17T03:56:47.422Z,12.51
2022-10-17T03:59:17.200Z,12.44
2022-10-17T04:01:50.974Z,12.46
2022-10-17T04:04:18.517Z,12.42
2022-10-17T04:06:45.072Z,12.32
2022-10-17T04:09:11.544Z,12.28
2022-10-17T04:11:53.531Z,12.21
2022-10-17T04:14:21.472Z,12.18
2022-10-17T04:16:47.885Z,12.13
2022-10-17T04:19:20.428Z,12.10
2022-10-17T04:21:47.919Z,12.01
2022-10-17T04:24:14.919Z,12.10
2022-10-17T04:26:51.128Z,12.10
2022-10-17T04:29:18.878Z,12.15
2022-10-17T04:31:48.353Z,12.25
2022-10-17T04:34:22.108Z,12.35
2022-10-17T04:36:48.754Z,12.22
2022-10-17T04:39:15.393Z,12.18
2022-10-17T04:41:42.349Z,12.15
2022-10-17T04:44:10.594Z,12.14
2022-10-17T04:46:40.749Z,12.12
2022-10-17T04:49:07.241Z,12.15
2022-10-17T04:51:33.573Z,12.17
2022-10-17T04:54:13.723Z,12.19
2022-10-17T04:56:42.677Z,12.19
2022-10-17T04:59:09.161Z,12.21
2022-10-17T05:01:37.643Z,12.15
2022-10-17T05:04:04.079Z,12.19
2022-10-17T05:06:31.452Z,12.17
2022-10-17T05:09:16.325Z,12.18
2022-10-17T05:11:43.553Z,12.13
2022-10-17T05:14:11.082Z,11.99
2022-10-17T05:16:38.037Z,12.02
2022-10-17T05:19:04.844Z,12.04
2022-10-17T05:21:37.398Z,12.21
2022-10-17T05:24:09.111Z,12.11
2022-10-17T05:26:35.630Z,12.21
2022-10-17T05:29:03.042Z,12.16
2022-10-17T05:31:32.075Z,12.02
2022-10-17T05:34:02.653Z,11.93
2022-10-17T05:36:31.572Z,11.90
2022-10-17T05:38:59.537Z,11.85
2022-10-17T05:41:27.263Z,11.85
2022-10-17T05:43:53.879Z,11.82
2022-10-17T05:46:29.925Z,11.96
2022-10-17T05:48:56.397Z,11.97
2022-10-17T05:51:22.757Z,11.93
2022-10-17T05:53:49.181Z,11.92
2022-10-17T05:56:22.078Z,12.03
2022-10-17T05:58:50.886Z,12.02
2022-10-17T06:01:38.456Z,12.08
2022-10-17T06:04:05.096Z,12.11
2022-10-17T06:06:31.580Z,12.15
2022-10-17T06:08:58.116Z,12.13
2022-10-17T06:11:29.873Z,12.12
2022-10-17T06:13:56.390Z,12.12
2022-10-17T06:16:25.298Z,12.05
2022-10-17T06:18:51.875Z,12.06
2022-10-17T06:21:25.157Z,12.12
2022-10-17T06:23:54.281Z,11.99
2022-10-17T06:26:33.832Z,12.05
2022-10-17T06:29:00.624Z,11.99
2022-10-17T06:31:31.684Z,12.12
2022-10-17T06:33:58.205Z,12.17
2022-10-17T06:36:24.562Z,12.16
2022-10-17T06:38:51.262Z,12.31
2022-10-17T06:41:27.425Z,12.30
2022-10-17T06:43:54.362Z,12.30
2022-10-17T06:46:39.749Z,12.35
2022-10-17T06:49:10.204Z,12.37
2022-10-17T06:51:56.897Z,12.31
2022-10-17T06:54:32.630Z,12.37
2022-10-17T06:57:10.251Z,12.42
2022-10-17T06:59:49.372Z,12.42
2022-10-17T07:02:20.418Z,12.47
2022-10-17T07:04:47.666Z,12.48
2022-10-17T07:07:14.053Z,12.53
2022-10-17T07:09:41.441Z,12.46
2022-10-17T07:12:08.485Z,12.53
2022-10-17T07:14:35.778Z,12.59
2022-10-17T07:17:02.404Z,12.62
2022-10-17T07:19:31.333Z,12.63
2022-10-17T07:21:57.727Z,12.75
2022-10-17T07:24:25.084Z,12.81
2022-10-17T07:26:57.006Z,12.81
2022-10-17T07:29:23.400Z,12.88
2022-10-17T07:32:25.197Z,12.99
2022-10-17T07:34:51.641Z,13.01
2022-10-17T07:37:18.104Z,13.06
2022-10-17T07:39:51.255Z,13.16
2022-10-17T07:42:17.727Z,13.32
2022-10-17T07:44:47.275Z,13.53
2022-10-17T07:47:13.844Z,13.54
2022-10-17T07:49:45.152Z,13.75
2022-10-17T07:52:13.390Z,13.87
2022-10-17T07:54:40.059Z,13.95
2022-10-17T07:57:06.922Z,14.09
2022-10-17T07:59:34.645Z,14.34
2022-10-17T08:02:01.219Z,14.37
2022-10-17T08:04:27.817Z,14.53
2022-10-17T08:07:05.395Z,14.61
2022-10-17T08:09:39.499Z,14.85
2022-10-17T08:12:05.906Z,15.28
2022-10-17T08:14:32.364Z,15.55
2022-10-17T08:16:58.777Z,16.02
2022-10-17T08:19:25.426Z,16.71
2022-10-17T08:21:52.314Z,17.38
2022-10-17T08:24:18.686Z,17.81
2022-10-17T08:26:48.247Z,18.05
2022-10-17T08:29:16.907Z,18.69
2022-10-17T08:31:47.434Z,19.32
2022-10-17T08:34:15.770Z,19.85
2022-10-17T08:36:42.239Z,20.24
2022-10-17T08:39:08.658Z,20.75
2022-10-17T08:41:52.255Z,21.58
2022-10-17T08:44:27.811Z,21.85
2022-10-17T08:46:59.032Z,22.12
2022-10-17T08:49:37.514Z,22.35
2022-10-17T08:52:11.379Z,22.82
2022-10-17T08:54:45.968Z,22.78
2022-10-17T08:57:17.435Z,22.60
2022-10-17T08:59:45.794Z,22.71
2022-10-17T09:02:43.048Z,22.87
2022-10-17T09:05:33.908Z,22.78
2022-10-17T09:08:31.846Z,22.63
2022-10-17T09:11:13.937Z,23.67
2022-10-17T09:14:22.024Z,23.43
2022-10-17T09:17:12.275Z,23.45
2022-10-17T09:19:51.143Z,24.14
2022-10-17T09:22:23.825Z,23.94
2022-10-17T09:24:58.213Z,24.75
2022-10-17T09:27:36.684Z,24.83
2022-10-17T09:30:46.726Z,24.85
2022-10-17T09:33:34.397Z,25.35
2022-10-17T09:36:13.162Z,25.42
2022-10-17T09:38:43.317Z,26.11
2022-10-17T09:41:43.093Z,26.47
2022-10-17T09:44:21.919Z,26.27
2022-10-17T09:47:13.314Z,26.18
2022-10-17T09:49:42.262Z,26.07
2022-10-17T09:52:16.287Z,25.96
2022-10-17T09:54:47.982Z,25.74
2022-10-17T09:57:16.325Z,25.88
2022-10-17T09:59:56.607Z,26.31
2022-10-17T10:02:25.161Z,27.04
2022-10-17T10:05:06.357Z,26.77
2022-10-17T10:07:37.822Z,27.14
2022-10-17T10:10:07.718Z,27.69
2022-10-17T10:12:39.384Z,27.24
2022-10-17T10:15:32.601Z,26.71
2022-10-17T10:17:59.115Z,26.96
2022-10-17T10:20:30.812Z,27.03
2022-10-17T10:23:18.352Z,27.52
2022-10-17T10:25:56.142Z,26.88
2022-10-17T10:28:50.423Z,27.59
2022-10-17T10:31:26.186Z,27.87
2022-10-17T10:33:56.805Z,26.36
2022-10-17T10:36:24.173Z,26.62
2022-10-17T10:38:54.964Z,25.68
2022-10-17T10:41:21.657Z,26.80
2022-10-17T10:43:51.449Z,26.77
2022-10-17T10:46:27.277Z,27.18
2022-10-17T10:48:53.685Z,26.76
2022-10-17T10:51:27.658Z,27.27
2022-10-17T10:54:16.981Z,26.73
2022-10-17T10:56:49.894Z,27.18
2022-10-17T10:59:51.832Z,26.13
2022-10-17T11:02:36.716Z,26.65
2022-10-17T11:05:20.699Z,26.52
2022-10-17T11:07:59.451Z,26.65
2022-10-17T11:10:46.434Z,27.13
2022-10-17T11:13:28.989Z,26.73
2022-10-17T11:16:07.340Z,26.84
2022-10-17T11:18:42.933Z,27.00
2022-10-17T11:21:20.615Z,26.68
2022-10-17T11:23:48.420Z,26.61
2022-10-17T11:26:39.939Z,26.96
2022-10-17T11:29:09.405Z,26.34
2022-10-17T11:31:40.743Z,26.42
2022-10-17T11:34:19.994Z,26.29
2022-10-17T11:36:50.997Z,26.38
2022-10-17T11:39:30.616Z,26.64
2022-10-17T11:42:09.736Z,26.33
2022-10-17T11:44:39.456Z,26.09
2022-10-17T11:47:39.758Z,26.25
2022-10-17T11:53:20.632Z,26.21
2022-10-17T11:55:47.794Z,26.28
2022-10-17T11:58:24.342Z,26.28
2022-10-17T12:00:55.037Z,26.43
2022-10-17T12:03:39.694Z,26.35
2022-10-17T12:06:37.317Z,26.72
2022-10-17T12:09:51.973Z,26.72
2022-10-17T12:12:30.662Z,26.36
2022-10-17T12:15:23.263Z,26.36
2022-10-17T12:18:02.977Z,26.59
2022-10-17T12:20:37.166Z,26.83
2022-10-17T12:23:12.597Z,27.16
2022-10-17T12:26:09.437Z,27.33
2022-10-17T12:28:39.510Z,27.45
2022-10-17T12:31:15.529Z,27.02
2022-10-17T12:33:49.328Z,26.66
2022-10-17T12:36:28.103Z,26.65
2022-10-17T12:39:06.445Z,26.77
2022-10-17T12:41:39.068Z,26.63
2022-10-17T12:44:14.986Z,26.73
2022-10-17T12:47:03.389Z,26.67
2022-10-17T12:49:37.729Z,26.42
2022-10-17T12:52:16.206Z,26.36
2022-10-17T12:55:00.257Z,26.46
2022-10-17T12:57:41.113Z,26.43
2022-10-17T13:00:25.207Z,26.48
2022-10-17T13:02:55.852Z,25.95
2022-10-17T13:05:34.310Z,26.86
2022-10-17T13:08:03.693Z,26.34
2022-10-17T13:10:34.938Z,26.35
2022-10-17T13:13:20.414Z,26.61
2022-10-17T13:15:48.458Z,26.70
2022-10-17T13:18:29.193Z,26.68
2022-10-17T13:21:26.069Z,26.63
2022-10-17T13:23:54.227Z,26.25
2022-10-17T13:26:28.699Z,26.41
2022-10-17T13:29:13.803Z,26.97
2022-10-17T13:31:43.123Z,26.78
2022-10-17T13:34:21.137Z,26.73
2022-10-17T13:36:50.742Z,26.68
2022-10-17T13:39:32.042Z,26.85
2022-10-17T13:42:05.548Z,26.43
2022-10-17T13:44:37.074Z,26.54
2022-10-17T13:47:04.305Z,25.89
2022-10-17T13:49:40.741Z,26.61
2022-10-17T13:52:14.502Z,26.87
2022-10-17T13:54:43.045Z,26.50
2022-10-17T13:57:30.622Z,26.86
2022-10-17T14:00:09.902Z,26.89
2022-10-17T14:02:41.879Z,26.45
2022-10-17T14:05:17.833Z,26.31
2022-10-17T14:08:21.863Z,26.35
2022-10-17T14:10:49.762Z,26.25
2022-10-17T14:13:26.140Z,25.96
2022-10-17T14:15:53.799Z,25.94
2022-10-17T14:18:38.683Z,26.09
2022-10-17T14:24:13.971Z,25.84
2022-10-17T14:26:51.462Z,25.87
2022-10-17T14:29:27.002Z,25.73
2022-10-17T14:32:08.680Z,25.99
2022-10-17T14:34:40.537Z,25.47
2022-10-17T14:37:12.818Z,25.54
2022-10-17T14:39:39.714Z,25.93
2022-10-17T14:42:06.336Z,25.56
2022-10-17T14:44:35.378Z,25.51
2022-10-17T14:47:30.745Z,25.73
2022-10-17T14:50:06.134Z,24.89
2022-10-17T14:52:34.581Z,25.02
2022-10-17T14:55:21.851Z,25.03
2022-10-17T14:57:48.224Z,24.79
2022-10-17T15:00:16.654Z,24.60
2022-10-17T15:02:44.291Z,24.52
2022-10-17T15:05:13.434Z,24.41
2022-10-17T15:07:41.002Z,24.70
2022-10-17T15:10:23.220Z,24.57
2022-10-17T15:12:57.475Z,24.54
2022-10-17T15:15:32.340Z,24.42
2022-10-17T15:17:58.782Z,24.11
2022-10-17T15:20:27.885Z,24.10
2022-10-17T15:22:54.652Z,24.13
2022-10-17T15:25:21.704Z,23.88
2022-10-17T15:27:48.142Z,23.80
2022-10-17T15:30:31.681Z,23.75
2022-10-17T15:32:59.241Z,23.38
2022-10-17T15:35:27.365Z,23.52
2022-10-17T15:37:53.923Z,23.03
2022-10-17T15:40:28.063Z,23.12
2022-10-17T15:42:56.227Z,22.74
2022-10-17T15:45:23.455Z,22.18
2022-10-17T15:47:56.139Z,22.21
2022-10-17T15:50:23.101Z,21.91
2022-10-17T15:52:53.294Z,21.72
2022-10-17T15:55:20.149Z,21.54
2022-10-17T15:57:48.534Z,21.27
2022-10-17T16:00:21.456Z,21.14
2022-10-17T16:02:49.174Z,20.87
2022-10-17T16:05:26.015Z,20.49
2022-10-17T16:07:53.608Z,20.41
2022-10-17T16:10:20.449Z,20.35
2022-10-17T16:12:49.658Z,20.23
2022-10-17T16:15:24.895Z,19.94
2022-10-17T16:17:52.763Z,19.88
2022-10-17T16:20:20.143Z,19.86
2022-10-17T16:22:47.387Z,19.60
2022-10-17T16:25:25.859Z,19.64
2022-10-17T16:27:55.054Z,19.39
2022-10-17T16:30:23.415Z,19.26
2022-10-17T16:32:49.931Z,19.11
2022-10-17T16:35:22.729Z,18.88
2022-10-17T16:37:49.232Z,18.93
2022-10-17T16:40:16.692Z,18.75
2022-10-17T16:42:44.720Z,18.65
2022-10-17T16:45:23.261Z,18.58
2022-10-17T16:47:50.540Z,18.73
2022-10-17T16:50:17.111Z,18.64
2022-10-17T16:52:43.614Z,18.46
2022-10-17T16:55:10.083Z,18.28
2022-10-17T16:57:36.600Z,18.31
2022-10-17T17:00:04.903Z,18.37
2022-10-17T17:02:31.740Z,18.35
2022-10-17T17:04:58.305Z,18.16
2022-10-17T17:07:29.483Z,18.17
2022-10-17T17:09:56.383Z,18.06
2022-10-17T17:12:22.865Z,17.96
2022-10-17T17:14:49.277Z,17.97
2022-10-17T17:17:24.649Z,17.96
2022-10-17T17:20:02.139Z,17.87
2022-10-17T17:22:28.464Z,17.81
2022-10-17T17:24:54.873Z,17.73
2022-10-17T17:27:21.533Z,17.64
2022-10-17T17:29:47.981Z,17.65
2022-10-17T17:32:14.649Z,17.60
2022-10-17T17:34:41.055Z,17.44
2022-10-17T17:37:07.379Z,17.41
2022-10-17T17:39:33.874Z,17.31
2022-10-17T17:42:00.195Z,17.32
2022-10-17T17:44:26.626Z,17.25
2022-10-17T17:46:53.198Z,17.16
2022-10-17T17:49:19.631Z,17.06
2022-10-17T17:51:46.575Z,16.96
2022-10-17T17:54:13.406Z,16.98
2022-10-17T17:56:39.919Z,16.92
2022-10-17T17:59:07.048Z,16.79
2022-10-17T18:01:38.150Z,16.69
2022-10-17T18:04:08.445Z,16.67
2022-10-17T18:06:36.152Z,16.68
2022-10-17T18:09:03.604Z,16.69
2022-10-17T18:11:30.115Z,16.66
2022-10-17T18:14:00.749Z,16.58
2022-10-17T18:16:28.857Z,16.49
2022-10-17T18:18:55.477Z,16.51
2022-10-17T18:21:22.239Z,16.45
2022-10-17T18:23:49.716Z,16.36
2022-10-17T18:26:16.492Z,16.22
2022-10-17T18:28:43.779Z,16.22
2022-10-17T18:31:24.975Z,16.12
2022-10-17T18:33:53.433Z,15.95
2022-10-17T18:36:21.401Z,16.02
2022-10-17T18:38:48.145Z,15.97
2022-10-17T18:41:17.129Z,15.89
2022-10-17T18:43:45.145Z,15.90
2022-10-17T18:46:17.901Z,15.75
2022-10-17T18:48:46.118Z,15.78
2022-10-17T18:51:14.868Z,15.75
2022-10-17T18:53:46.354Z,15.69
2022-10-17T18:56:13.451Z,15.72
2022-10-17T18:58:40.689Z,15.73
2022-10-17T19:01:10.656Z,15.67
2022-10-17T19:03:37.495Z,15.55
2022-10-17T19:06:10.132Z,15.53
2022-10-17T19:08:38.033Z,15.52
2022-10-17T19:11:12.663Z,15.62
2022-10-17T19:13:39.997Z,15.57
2022-10-17T19:16:23.972Z,15.64
2022-10-17T19:18:57.199Z,15.56
2022-10-17T19:21:24.677Z,15.52
2022-10-17T19:24:00.217Z,15.53
2022-10-17T19:26:28.756Z,15.42
2022-10-17T19:28:55.281Z,15.45
2022-10-17T19:31:27.070Z,15.49
2022-10-17T19:33:55.715Z,15.39
2022-10-17T19:36:27.593Z,15.34
2022-10-17T19:38:57.448Z,15.30
2022-10-17T19:41:24.280Z,15.25
2022-10-17T19:43:50.934Z,15.19
2022-10-17T19:46:20.765Z,15.17
2022-10-17T19:48:49.919Z,15.15
2022-10-17T19:51:19.720Z,15.19
2022-10-17T19:53:47.002Z,15.12
2022-10-17T19:56:13.964Z,15.14
2022-10-17T19:58:46.758Z,15.08
2022-10-17T20:01:18.998Z,14.99
2022-10-17T20:03:46.654Z,15.00
2022-10-17T20:06:14.094Z,14.94
2022-10-17T20:08:41.163Z,14.92
2022-10-17T20:11:13.281Z,14.90
2022-10-17T20:13:40.628Z,14.86
2022-10-17T20:16:08.655Z,14.94
2022-10-17T20:18:35.276Z,14.90
2022-10-17T20:21:06.539Z,14.97
2022-10-17T20:23:33.730Z,14.92
2022-10-17T20:26:13.524Z,14.79
2022-10-17T20:28:50.098Z,14.82
2022-10-17T20:31:16.967Z,14.76
2022-10-17T20:33:43.500Z,14.85
2022-10-17T20:36:10.995Z,14.83
2022-10-17T20:38:37.572Z,14.80
2022-10-17T20:41:05.264Z,14.81
2022-10-17T20:43:31.721Z,14.81
2022-10-17T20:46:04.558Z,14.72
2022-10-17T20:48:37.398Z,14.68
2022-10-17T20:51:11.370Z,14.66
2022-10-17T20:53:38.075Z,14.69
2022-10-17T20:56:24.125Z,14.62
2022-10-17T20:59:04.774Z,14.60
2022-10-17T21:01:32.799Z,14.63
2022-10-17T21:04:10.527Z,14.59
2022-10-17T21:06:51.264Z,14.57
2022-10-17T21:09:18.105Z,14.57
2022-10-17T21:11:44.758Z,14.59
2022-10-17T21:14:12.045Z,14.51
2022-10-17T21:16:39.466Z,14.46
2022-10-17T21:19:06.243Z,14.41
2022-10-17T21:21:37.547Z,14.42
2022-10-17T21:24:06.470Z,14.37
2022-10-17T21:26:34.777Z,14.36
2022-10-17T21:29:05.805Z,14.34
2022-10-17T21:31:37.308Z,14.26
2022-10-17T21:34:13.904Z,14.31
2022-10-17T21:36:40.848Z,14.32
2022-10-17T21:41:39.082Z,14.32
2022-10-17T21:44:08.237Z,14.35
2022-10-17T21:46:34.621Z,14.31
2022-10-17T21:49:01.345Z,14.31
2022-10-17T21:51:28.366Z,14.28
2022-10-17T21:53:56.738Z,14.29
2022-10-17T21:56:28.017Z,14.29
2022-10-17T21:58:54.993Z,14.36
2022-10-17T22:01:27.277Z,14.33
2022-10-17T22:04:00.876Z,14.34
2022-10-17T22:06:45.279Z,14.32
2022-10-17T22:09:31.810Z,14.29
2022-10-17T22:11:58.278Z,14.30
2022-10-17T22:14:27.281Z,14.30
2022-10-17T22:16:54.266Z,14.42
2022-10-17T22:19:23.509Z,14.49
2022-10-17T22:21:50.339Z,14.47
2022-10-17T22:24:18.870Z,14.61
2022-10-17T22:26:45.425Z,14.52
2022-10-17T22:29:12.325Z,14.50
2022-10-17T22:31:39.671Z,14.58
2022-10-17T22:34:07.188Z,14.54
2022-10-17T22:36:34.671Z,14.60
2022-10-17T22:39:01.690Z,14.53
2022-10-17T22:41:28.100Z,14.52
2022-10-17T22:43:54.543Z,14.57
2022-10-17T22:46:20.868Z,14.62
2022-10-17T22:48:47.474Z,14.59
2022-10-17T22:51:14.436Z,14.55
2022-10-17T22:53:41.083Z,14.60
2022-10-17T22:56:11.389Z,14.52
2022-10-17T22:58:38.555Z,14.55
2022-10-17T23:01:06.363Z,14.51
2022-10-17T23:03:34.083Z,14.48
2022-10-17T23:06:00.941Z,14.49
2022-10-17T23:08:28.052Z,14.49
2022-10-17T23:10:54.526Z,14.49
2022-10-17T23:13:22.226Z,14.52
2022-10-17T23:15:52.616Z,14.52
2022-10-17T23:18:19.736Z,14.60
2022-10-17T23:20:46.256Z,14.56
2022-10-17T23:23:12.596Z,14.59
2022-10-17T23:25:39.007Z,14.65
2022-10-17T23:28:08.029Z,14.67
2022-10-17T23:30:35.438Z,14.73
2022-10-17T23:33:01.924Z,14.72
2022-10-17T23:35:28.244Z,14.73
2022-10-17T23:37:54.829Z,14.75
2022-10-17T23:40:21.168Z,14.75
2022-10-17T23:42:47.618Z,14.78
2022-10-17T23:45:14.055Z,14.78
2022-10-17T23:47:40.392Z,14.82
2022-10-17T23:50:07.158Z,14.96
2022-10-17T23:52:33.971Z,14.90
2022-10-17T23:55:00.362Z,14.87
2022-10-17T23:57:26.972Z,14.91
2022-10-17T23:59:53.532Z,15.00
